Аэропорт: Курумоч. Самара

ICAO: UWWW

METAR:
2021-01-27 04:30:00
UWWW 270430Z 12002MPS 080V140 9999 BKN020 M09/M11 Q1025 R15/310155 NOSIG RMK QFE757/1010
METAR:
2021-01-27 01:53:00
TAF UWWW 270153Z 2703/2803 15007G14MPS 6000 BKN007 TXM02/2711Z TNM06/2704Z TEMPO 2703/2707 0300 FZDZ FZFG VV002 FM270700 14007G12MPS 9999 BKN016 TEMPO 2707/2803 17015MPS 2000 SN BLSN OVC004